Time;durP1;ratioP1;P1;durP2;ratioP2;P2;SDS_P1;SDS_P2;PMS_P1;PMS_P2;Temp;Humidity;BMP_temperature;BMP_pressure;BME280_temperature;BME280_humidity;BME280_pressure;Samples;Min_cycle;Max_cycle;Signal;HPM_P1;HPM_P2
2023/01/13 00:01:18;;;;;;;52.92;27.45;;;3.70;99.90;;;;;;5096478;28;20892;-82
2023/01/13 00:03:44;;;;;;;60.65;27.90;;;3.70;99.90;;;;;;5097256;28;20302;-85
2023/01/13 00:06:17;;;;;;;52.27;28.50;;;3.80;99.90;;;;;;5098181;28;20207;-84
2023/01/13 00:08:42;;;;;;;51.92;30.60;;;3.80;99.90;;;;;;5097428;28;20474;-84
2023/01/13 00:11:09;;;;;;;68.83;29.10;;;3.80;99.90;;;;;;5097752;28;20173;-82
2023/01/13 00:13:37;;;;;;;63.60;30.95;;;3.70;99.90;;;;;;5096063;28;20204;-84
2023/01/13 00:16:09;;;;;;;48.63;26.85;;;3.70;99.90;;;;;;5096434;28;20289;-84
2023/01/13 00:18:38;;;;;;;54.03;28.65;;;3.70;99.90;;;;;;5095944;28;20207;-84
2023/01/13 00:21:07;;;;;;;79.93;27.95;;;3.70;99.90;;;;;;5094734;28;20668;-84
2023/01/13 00:23:34;;;;;;;71.38;30.17;;;3.70;99.90;;;;;;5095729;28;20212;-83
2023/01/13 00:26:05;;;;;;;72.90;37.55;;;3.70;99.90;;;;;;5094677;28;20173;-82
2023/01/13 00:28:31;;;;;;;92.60;44.88;;;3.60;99.90;;;;;;5095864;28;20211;-82
2023/01/13 00:31:07;;;;;;;63.90;30.58;;;3.50;99.90;;;;;;5094962;28;20183;-83
2023/01/13 00:33:33;;;;;;;85.88;39.70;;;3.40;99.90;;;;;;5094352;28;20672;-84
2023/01/13 00:36:00;;;;;;;76.80;33.33;;;3.30;99.90;;;;;;5094397;28;20181;-84
2023/01/13 00:38:27;;;;;;;65.43;29.65;;;3.30;99.90;;;;;;5095462;28;20204;-84
2023/01/13 00:41:02;;;;;;;57.58;30.15;;;3.30;99.90;;;;;;5098698;28;20169;-83
2023/01/13 00:43:29;;;;;;;64.85;29.75;;;3.20;99.90;;;;;;5097998;28;20264;-84
2023/01/13 00:45:55;;;;;;;54.58;28.67;;;3.20;99.90;;;;;;5095826;28;20183;-84
2023/01/13 00:48:22;;;;;;;59.60;28.90;;;3.10;99.90;;;;;;5095919;28;20533;-84
2023/01/13 00:51:03;;;;;;;60.33;26.55;;;3.00;99.90;;;;;;5093946;28;20183;-83
2023/01/13 00:53:33;;;;;;;56.55;26.60;;;2.90;99.90;;;;;;5094276;28;20195;-84
2023/01/13 00:56:25;;;;;;;55.00;34.58;;;2.90;99.90;;;;;;5095192;28;20228;-84
2023/01/13 00:58:51;;;;;;;51.55;28.52;;;3.00;99.90;;;;;;5092351;28;20212;-83
2023/01/13 01:01:21;;;;;;;48.83;28.17;;;3.00;99.90;;;;;;5095151;28;20173;-84
2023/01/13 01:03:49;;;;;;;50.63;27.13;;;2.80;99.90;;;;;;5093840;28;20277;-84
2023/01/13 01:06:17;;;;;;;52.80;28.55;;;2.70;99.90;;;;;;5093703;28;20184;-84
2023/01/13 01:08:44;;;;;;;54.25;28.05;;;2.80;99.90;;;;;;5093729;28;20303;-84
2023/01/13 01:11:13;;;;;;;63.47;29.58;;;2.80;99.90;;;;;;5095015;28;20169;-83
2023/01/13 01:13:39;;;;;;;54.25;28.15;;;2.80;99.90;;;;;;5094789;28;20238;-85
2023/01/13 01:16:08;;;;;;;39.80;26.58;;;2.90;99.90;;;;;;5093737;28;20193;-83
2023/01/13 01:18:35;;;;;;;42.03;26.52;;;2.90;99.90;;;;;;5093532;28;20207;-83
2023/01/13 01:21:02;;;;;;;43.15;25.83;;;2.80;99.90;;;;;;5092682;28;20204;-84
2023/01/13 01:23:29;;;;;;;42.33;27.45;;;2.80;99.90;;;;;;5094159;28;20216;-83
2023/01/13 01:26:00;;;;;;;49.83;28.17;;;2.70;99.90;;;;;;5094717;28;20181;-83
2023/01/13 01:28:26;;;;;;;52.35;27.90;;;2.60;99.90;;;;;;5093321;28;20192;-84
2023/01/13 01:30:54;;;;;;;55.53;30.67;;;2.60;99.90;;;;;;5094600;28;20176;-83
2023/01/13 01:33:20;;;;;;;43.45;27.15;;;2.60;99.90;;;;;;5094494;28;20184;-83
2023/01/13 01:35:46;;;;;;;55.95;31.58;;;2.70;99.90;;;;;;5093280;28;20177;-82
2023/01/13 01:38:12;;;;;;;51.03;27.77;;;2.60;99.90;;;;;;5093087;28;20219;-84
2023/01/13 01:40:37;;;;;;;49.40;30.97;;;2.70;99.90;;;;;;5093054;28;20212;-83
2023/01/13 01:45:57;;;;;;;56.22;28.50;;;2.60;99.90;;;;;;5094729;28;20302;-84
2023/01/13 01:48:23;;;;;;;62.30;30.17;;;2.60;99.90;;;;;;5094252;28;20212;-83
2023/01/13 01:50:48;;;;;;;56.33;27.30;;;2.50;99.90;;;;;;5093025;28;20265;-82
2023/01/13 01:53:18;;;;;;;61.70;29.20;;;2.50;99.90;;;;;;5092897;28;20196;-83
2023/01/13 01:55:44;;;;;;;80.43;30.55;;;2.40;99.90;;;;;;5092776;28;20669;-83
2023/01/13 01:58:44;;;;;;;65.72;29.08;;;2.30;99.90;;;;;;5094030;28;20192;-82
2023/01/13 02:01:11;;;;;;;63.90;28.92;;;2.30;99.90;;;;;;5092978;28;20253;-83
2023/01/13 02:03:41;;;;;;;57.95;28.45;;;2.20;99.90;;;;;;5096060;28;20228;-85
2023/01/13 02:06:07;;;;;;;62.17;28.80;;;2.10;99.90;;;;;;5092896;28;20570;-83
2023/01/13 02:08:36;;;;;;;50.03;28.07;;;2.10;99.90;;;;;;5093996;28;20231;-83
2023/01/13 02:11:01;;;;;;;61.85;28.13;;;2.10;99.90;;;;;;5092673;28;20409;-83
2023/01/13 02:13:27;;;;;;;59.17;29.90;;;2.10;99.90;;;;;;5093902;28;20202;-83
2023/01/13 02:16:11;;;;;;;76.53;29.60;;;2.10;99.90;;;;;;5092562;28;20676;-83
2023/01/13 02:18:53;;;;;;;60.28;27.90;;;2.20;99.90;;;;;;5093914;28;20683;-83
2023/01/13 02:21:43;;;;;;;56.97;29.02;;;2.10;99.90;;;;;;5093855;28;20676;-83
2023/01/13 02:27:22;;;;;;;62.08;29.52;;;2.20;99.90;;;;;;5093884;28;20175;-84
2023/01/13 02:33:30;;;;;;;58.50;26.60;;;2.10;99.90;;;;;;5094312;28;20703;-84
2023/01/13 02:36:09;;;;;;;39.58;25.83;;;2.00;99.90;;;;;;5094450;28;20201;-83
2023/01/13 02:38:47;;;;;;;40.28;25.70;;;2.00;99.90;;;;;;5094553;28;20196;-84
2023/01/13 02:44:14;;;;;;;43.50;27.52;;;2.20;99.90;;;;;;5093830;28;20211;-83
2023/01/13 02:46:50;;;;;;;52.38;27.77;;;2.10;99.90;;;;;;5092364;28;20223;-83
2023/01/13 02:49:32;;;;;;;58.65;26.15;;;2.10;99.90;;;;;;5093815;28;20203;-84
2023/01/13 02:52:06;;;;;;;48.90;28.02;;;2.10;99.90;;;;;;5093561;28;20222;-84
2023/01/13 02:54:34;;;;;;;63.03;27.77;;;2.10;99.90;;;;;;5097457;28;20180;-84
2023/01/13 02:57:01;;;;;;;62.58;30.20;;;2.10;99.90;;;;;;5097638;28;20165;-84
2023/01/13 02:59:29;;;;;;;57.97;28.95;;;2.10;99.90;;;;;;5097778;28;20622;-85
2023/01/13 03:01:56;;;;;;;51.08;29.65;;;2.20;99.90;;;;;;5097352;28;20365;-83
2023/01/13 03:04:52;;;;;;;66.93;32.42;;;2.20;99.90;;;;;;5096345;28;20172;-84
2023/01/13 03:07:45;;;;;;;63.42;26.05;;;2.20;99.90;;;;;;5097385;28;20196;-83
2023/01/13 03:10:32;;;;;;;55.90;32.45;;;2.20;99.90;;;;;;5096335;28;20567;-84
2023/01/13 03:13:35;;;;;;;70.88;28.55;;;2.20;99.90;;;;;;5095969;28;20365;-84
2023/01/13 03:16:26;;;;;;;84.00;31.75;;;2.10;99.90;;;;;;5096794;28;20187;-84
2023/01/13 03:19:23;;;;;;;35.63;19.58;;;2.00;99.90;;;;;;5098336;28;20302;-83
2023/01/13 03:22:04;;;;;;;66.28;29.83;;;2.00;99.90;;;;;;5099081;28;20234;-88
2023/01/13 03:24:38;;;;;;;70.03;32.35;;;1.90;99.90;;;;;;5100106;28;20176;-83
2023/01/13 03:27:06;;;;;;;56.17;32.15;;;1.90;99.90;;;;;;5098989;28;20168;-83
2023/01/13 03:29:45;;;;;;;61.75;30.73;;;1.90;99.90;;;;;;5095951;28;20637;-84
2023/01/13 03:32:41;;;;;;;79.13;30.52;;;1.90;99.90;;;;;;5095529;28;20211;-82
2023/01/13 03:35:19;;;;;;;79.10;32.78;;;1.90;99.90;;;;;;5095842;28;20263;-83
2023/01/13 03:37:50;;;;;;;87.35;32.92;;;1.90;99.90;;;;;;5096830;28;20283;-83
2023/01/13 03:40:21;;;;;;;105.70;31.58;;;2.00;99.90;;;;;;5097379;28;20165;-83
2023/01/13 03:45:40;;;;;;;79.00;28.92;;;2.20;99.90;;;;;;5096972;28;20187;-83
2023/01/13 03:48:15;;;;;;;54.83;27.27;;;2.20;99.90;;;;;;5096637;28;20565;-84
2023/01/13 03:50:50;;;;;;;75.32;28.95;;;2.30;99.90;;;;;;5095282;28;20553;-83
2023/01/13 03:53:29;;;;;;;87.32;30.73;;;2.30;99.90;;;;;;5096510;28;20198;-85
2023/01/13 03:56:06;;;;;;;71.13;30.30;;;2.30;99.90;;;;;;5096526;28;20228;-84
2023/01/13 03:58:38;;;;;;;82.40;29.20;;;2.40;99.90;;;;;;5095201;28;20208;-82
2023/01/13 04:01:12;;;;;;;99.65;30.88;;;2.40;99.90;;;;;;5098260;28;20210;-84
2023/01/13 04:03:53;;;;;;;67.45;30.75;;;2.50;99.90;;;;;;5096095;28;20277;-83
2023/01/13 04:06:53;;;;;;;69.63;31.10;;;2.60;99.90;;;;;;5095910;28;20165;-82
2023/01/13 04:09:44;;;;;;;97.80;32.70;;;2.60;99.90;;;;;;5096498;28;20580;-82
2023/01/13 04:12:23;;;;;;;76.43;29.63;;;2.60;99.90;;;;;;5094823;28;20573;-84
2023/01/13 04:14:49;;;;;;;96.57;34.28;;;2.60;99.90;;;;;;5096444;28;20191;-84
2023/01/13 04:17:16;;;;;;;89.72;33.50;;;2.70;99.90;;;;;;5096014;28;20200;-84
2023/01/13 04:19:41;;;;;;;73.57;31.90;;;2.70;99.90;;;;;;5094846;28;20180;-85
2023/01/13 04:22:07;;;;;;;58.27;30.20;;;2.70;99.90;;;;;;5094509;28;20586;-83
2023/01/13 04:24:33;;;;;;;98.30;33.40;;;2.80;99.90;;;;;;5096100;28;20188;-84
2023/01/13 04:26:58;;;;;;;87.83;29.77;;;2.80;99.90;;;;;;5095821;28;20181;-83
2023/01/13 04:29:24;;;;;;;83.70;29.93;;;2.80;99.90;;;;;;5096081;28;20440;-84
2023/01/13 04:31:50;;;;;;;84.33;30.43;;;2.80;99.90;;;;;;5095741;28;20173;-85
2023/01/13 04:34:16;;;;;;;78.53;30.83;;;2.80;99.90;;;;;;5094552;28;20267;-84
2023/01/13 04:36:41;;;;;;;54.93;26.10;;;2.90;99.90;;;;;;5095739;28;20758;-83
2023/01/13 04:39:07;;;;;;;74.80;25.70;;;2.90;99.90;;;;;;5095652;28;20526;-84
2023/01/13 04:41:56;;;;;;;80.57;27.30;;;2.90;99.90;;;;;;5094173;28;20292;-83
2023/01/13 04:44:18;;;;;;;79.10;28.85;;;2.90;99.90;;;;;;5095576;28;20172;-84
2023/01/13 04:46:45;;;;;;;90.60;27.50;;;2.90;99.90;;;;;;5095522;28;20180;-84
2023/01/13 04:49:10;;;;;;;85.80;27.45;;;2.90;99.90;;;;;;5095536;28;20290;-84
2023/01/13 04:51:36;;;;;;;72.33;29.27;;;2.90;99.90;;;;;;5095804;28;20626;-84
2023/01/13 04:54:02;;;;;;;75.37;29.37;;;3.00;99.90;;;;;;5095486;28;20196;-83
2023/01/13 04:56:27;;;;;;;65.73;28.67;;;3.10;99.90;;;;;;5095369;28;20239;-84
2023/01/13 04:58:53;;;;;;;81.07;31.40;;;3.10;99.90;;;;;;5093838;28;20207;-85
2023/01/13 05:01:20;;;;;;;91.60;33.20;;;3.20;99.90;;;;;;5095073;28;20233;-84
2023/01/13 05:03:45;;;;;;;80.43;30.40;;;3.20;99.90;;;;;;5093718;28;20219;-84
2023/01/13 05:06:11;;;;;;;77.30;30.30;;;3.20;99.90;;;;;;5095278;28;20176;-82
2023/01/13 05:08:37;;;;;;;79.83;30.80;;;3.30;99.90;;;;;;5093783;28;20207;-82
2023/01/13 05:16:58;;;;;;;73.33;32.13;;;3.30;99.90;;;;;;5093820;28;20681;-83
2023/01/13 05:19:17;;;;;;;96.55;34.47;;;3.50;99.90;;;;;;5095179;28;20187;-84
2023/01/13 05:27:11;;;;;;;102.70;38.53;;;3.50;99.90;;;;;;5094471;28;20238;-82
2023/01/13 05:29:37;;;;;;;123.97;36.27;;;3.60;99.90;;;;;;5094754;28;20536;-85
2023/01/13 05:32:05;;;;;;;103.60;38.80;;;3.60;99.90;;;;;;5093267;28;20235;-83
2023/01/13 05:34:31;;;;;;;111.00;36.10;;;3.70;99.90;;;;;;5095894;28;20172;-82
2023/01/13 05:36:57;;;;;;;134.63;39.53;;;3.70;99.90;;;;;;5115549;27;20191;-83
2023/01/13 05:39:23;;;;;;;109.77;33.80;;;3.80;99.90;;;;;;5133482;27;20539;-85
2023/01/13 05:44:32;;;;;;;110.53;33.22;;;3.90;99.90;;;;;;5133495;27;20908;-83
2023/01/13 05:46:58;;;;;;;111.60;33.23;;;3.90;99.90;;;;;;5132972;27;20171;-83
2023/01/13 05:49:24;;;;;;;96.53;32.83;;;4.00;99.90;;;;;;5133012;27;20262;-85
2023/01/13 05:51:50;;;;;;;102.03;32.63;;;4.00;99.90;;;;;;5131700;27;20198;-83
2023/01/13 05:54:15;;;;;;;132.30;37.67;;;4.10;99.90;;;;;;5135132;27;20790;-84
2023/01/13 05:56:41;;;;;;;104.73;34.17;;;4.10;99.90;;;;;;5133720;27;20227;-83
2023/01/13 05:59:07;;;;;;;121.60;32.97;;;4.20;99.90;;;;;;5133799;27;20596;-82
2023/01/13 06:01:32;;;;;;;141.10;38.40;;;4.20;99.90;;;;;;5133821;27;20270;-85
2023/01/13 06:03:58;;;;;;;140.73;40.07;;;4.20;99.90;;;;;;5123491;27;20216;-85
2023/01/13 06:06:24;;;;;;;160.67;41.43;;;4.30;99.90;;;;;;5094141;28;20654;-83
2023/01/13 06:08:49;;;;;;;145.23;38.07;;;4.30;99.90;;;;;;5092855;28;20226;-82
2023/01/13 06:11:15;;;;;;;128.30;33.17;;;4.40;99.90;;;;;;5093895;28;20180;-84
2023/01/13 06:13:41;;;;;;;116.23;32.17;;;4.40;99.90;;;;;;5094044;28;20553;-84
2023/01/13 06:16:08;;;;;;;124.03;32.70;;;4.40;99.90;;;;;;5092740;28;20388;-82
2023/01/13 06:18:33;;;;;;;119.13;32.78;;;4.50;99.90;;;;;;5093507;28;20287;-83
2023/01/13 06:20:59;;;;;;;142.67;35.93;;;4.50;99.90;;;;;;5092560;28;20223;-83
2023/01/13 06:23:25;;;;;;;141.60;34.60;;;4.50;99.90;;;;;;5092929;28;20211;-84
2023/01/13 06:26:10;;;;;;;120.50;31.92;;;4.50;99.90;;;;;;5092594;28;20181;-84
2023/01/13 06:28:36;;;;;;;130.57;31.67;;;4.60;99.90;;;;;;5100717;28;20588;-85
2023/01/13 06:31:06;;;;;;;116.80;33.17;;;4.50;99.90;;;;;;5106326;28;20176;-84
2023/01/13 06:33:36;;;;;;;108.63;30.58;;;4.60;99.90;;;;;;5107935;28;20208;-85
2023/01/13 06:36:15;;;;;;;120.43;30.95;;;4.60;99.90;;;;;;5092294;28;20275;-83
2023/01/13 06:38:46;;;;;;;130.60;33.97;;;4.60;99.90;;;;;;5091896;28;20219;-85
2023/01/13 06:41:12;;;;;;;131.75;35.80;;;4.60;99.90;;;;;;5097374;28;20187;-85
2023/01/13 06:43:39;;;;;;;154.80;35.80;;;4.60;99.90;;;;;;5098941;28;20742;-83
2023/01/13 06:46:05;;;;;;;122.97;34.63;;;4.60;99.90;;;;;;5099531;28;20241;-83
2023/01/13 06:48:33;;;;;;;114.00;33.47;;;4.70;99.90;;;;;;5091161;28;20524;-82
2023/01/13 06:51:03;;;;;;;107.55;33.45;;;4.80;99.90;;;;;;5103727;28;20179;-82
2023/01/13 06:53:29;;;;;;;122.03;34.55;;;4.80;99.90;;;;;;5103521;28;20203;-85
2023/01/13 06:55:55;;;;;;;80.95;26.58;;;4.80;99.90;;;;;;5106578;28;20251;-85
2023/01/13 06:58:20;;;;;;;119.40;31.87;;;4.80;99.90;;;;;;5105282;28;20228;-83
2023/01/13 07:00:50;;;;;;;114.97;33.77;;;4.90;99.90;;;;;;5105251;28;20658;-83
2023/01/13 07:03:16;;;;;;;117.13;34.80;;;4.90;99.90;;;;;;5110591;28;20580;-84
2023/01/13 07:05:51;;;;;;;101.78;32.08;;;4.90;99.90;;;;;;5103267;28;20236;-82
2023/01/13 07:08:16;;;;;;;121.78;34.33;;;4.90;99.90;;;;;;5094869;28;20556;-82
2023/01/13 07:10:42;;;;;;;100.57;32.30;;;4.90;99.90;;;;;;5090382;28;20321;-85
2023/01/13 07:15:54;;;;;;;116.78;33.30;;;5.00;99.90;;;;;;5092533;28;20671;-82
2023/01/13 07:18:19;;;;;;;102.57;33.58;;;5.00;99.90;;;;;;5094467;28;20365;-84
2023/01/13 07:20:52;;;;;;;106.77;31.77;;;5.10;99.90;;;;;;5107585;28;20278;-83
2023/01/13 07:23:17;;;;;;;97.95;33.45;;;5.10;99.90;;;;;;5107850;28;20215;-83
2023/01/13 07:25:43;;;;;;;103.77;33.43;;;5.10;99.90;;;;;;5103876;28;20192;-83
2023/01/13 07:28:08;;;;;;;86.03;31.50;;;5.20;99.90;;;;;;5094495;28;20392;-83
2023/01/13 07:30:34;;;;;;;98.83;31.27;;;5.20;99.90;;;;;;5089698;28;20185;-83
2023/01/13 07:33:00;;;;;;;104.53;32.40;;;5.10;99.90;;;;;;5091880;28;20558;-85
2023/01/13 07:35:26;;;;;;;106.57;33.17;;;5.10;99.90;;;;;;5090070;28;20176;-83
2023/01/13 07:37:51;;;;;;;107.87;35.40;;;5.10;99.90;;;;;;5090892;28;20471;-84
2023/01/13 07:40:17;;;;;;;106.90;31.40;;;5.10;99.90;;;;;;5103960;28;20641;-82
2023/01/13 07:45:27;;;;;;;111.38;32.75;;;5.10;99.90;;;;;;5103746;28;20679;-84
2023/01/13 07:47:52;;;;;;;102.23;35.27;;;5.20;99.90;;;;;;5092353;28;20200;-83
2023/01/13 07:50:20;;;;;;;111.73;39.50;;;5.30;99.90;;;;;;5091166;28;20395;-85
2023/01/13 07:52:46;;;;;;;123.40;41.72;;;5.30;99.90;;;;;;5090695;28;20242;-83
2023/01/13 07:55:11;;;;;;;106.63;35.57;;;5.30;99.90;;;;;;5073107;28;20243;-83
2023/01/13 07:57:37;;;;;;;100.70;40.67;;;5.40;99.90;;;;;;5082330;28;20845;-85
2023/01/13 08:00:04;;;;;;;95.07;35.20;;;5.30;99.90;;;;;;5104711;28;20188;-84
2023/01/13 08:02:30;;;;;;;111.07;34.95;;;5.30;99.90;;;;;;5111410;28;20227;-84
2023/01/13 08:04:55;;;;;;;96.43;30.47;;;5.30;99.90;;;;;;5106949;28;20187;-84
2023/01/13 08:07:21;;;;;;;109.13;33.00;;;5.30;99.90;;;;;;5108689;28;20200;-83
2023/01/13 08:09:47;;;;;;;106.00;32.50;;;5.30;99.90;;;;;;5095226;28;20527;-83
2023/01/13 08:14:57;;;;;;;106.15;33.75;;;5.30;99.90;;;;;;5104175;28;20493;-85
2023/01/13 08:17:23;;;;;;;99.30;32.53;;;5.40;99.90;;;;;;5098718;28;20204;-85
2023/01/13 08:19:49;;;;;;;108.40;35.00;;;5.40;99.90;;;;;;5097604;28;20188;-84
2023/01/13 08:22:14;;;;;;;72.77;24.67;;;5.40;99.90;;;;;;5094409;28;20299;-83
2023/01/13 08:24:40;;;;;;;55.60;23.30;;;5.40;99.90;;;;;;5103892;28;20512;-85
2023/01/13 08:27:05;;;;;;;87.07;32.83;;;5.40;99.90;;;;;;5099852;28;20534;-85
2023/01/13 08:29:31;;;;;;;81.17;27.00;;;5.40;99.90;;;;;;5101505;28;20183;-82
2023/01/13 08:31:57;;;;;;;88.70;31.93;;;5.40;99.90;;;;;;5092703;28;20199;-85
2023/01/13 08:34:22;;;;;;;30.70;12.77;;;5.30;99.90;;;;;;5096622;28;20183;-84
2023/01/13 08:36:49;;;;;;;83.40;29.93;;;5.30;99.90;;;;;;5106944;28;20212;-85
2023/01/13 08:39:15;;;;;;;97.78;33.55;;;5.30;99.90;;;;;;5106298;28;20188;-84
2023/01/13 08:41:54;;;;;;;85.70;33.20;;;5.30;99.90;;;;;;5099599;28;20183;-83
2023/01/13 08:44:22;;;;;;;92.03;34.20;;;5.30;99.90;;;;;;5094799;28;20188;-84
2023/01/13 08:46:47;;;;;;;124.30;40.47;;;5.40;99.90;;;;;;5105898;28;20184;-83
2023/01/13 08:49:15;;;;;;;97.30;37.97;;;5.40;99.90;;;;;;5102116;28;20302;-83
2023/01/13 08:51:41;;;;;;;96.88;37.05;;;5.50;99.90;;;;;;5096984;28;20184;-83
2023/01/13 08:54:06;;;;;;;99.57;40.17;;;5.60;99.90;;;;;;5101078;28;20563;-82
2023/01/13 08:56:32;;;;;;;103.40;39.90;;;5.60;99.90;;;;;;5101224;28;20224;-83
2023/01/13 08:58:58;;;;;;;90.03;36.37;;;5.60;99.90;;;;;;5099314;28;20196;-83
2023/01/13 09:01:24;;;;;;;71.05;29.23;;;5.60;99.90;;;;;;5096508;28;20632;-84
2023/01/13 09:03:50;;;;;;;76.68;27.90;;;5.50;99.90;;;;;;5092954;28;20696;-84
2023/01/13 09:06:16;;;;;;;89.20;32.70;;;5.50;99.90;;;;;;5101967;28;20184;-83
2023/01/13 09:08:43;;;;;;;78.95;30.48;;;5.50;99.90;;;;;;5090555;28;20594;-83
2023/01/13 09:14:02;;;;;;;96.90;34.85;;;5.60;99.90;;;;;;5103859;28;20262;-83
2023/01/13 09:16:28;;;;;;;94.30;33.95;;;5.70;99.90;;;;;;5106814;27;20182;-84
2023/01/13 09:18:54;;;;;;;89.13;32.60;;;5.70;99.90;;;;;;5089560;28;20625;-82
2023/01/13 09:21:20;;;;;;;46.27;21.30;;;5.70;99.90;;;;;;5099849;28;20428;-82
2023/01/13 09:23:47;;;;;;;77.60;36.65;;;5.70;99.90;;;;;;5093884;28;20285;-84
2023/01/13 09:26:18;;;;;;;47.83;20.88;;;5.60;99.90;;;;;;5092905;28;20275;-81
2023/01/13 09:28:44;;;;;;;65.80;31.42;;;5.60;99.90;;;;;;5098701;28;20203;-83
2023/01/13 09:31:10;;;;;;;66.73;30.30;;;5.70;99.90;;;;;;5098584;28;20605;-85
2023/01/13 09:36:20;;;;;;;82.72;32.47;;;5.80;99.90;;;;;;5100872;28;20191;-82
2023/01/13 09:38:47;;;;;;;91.17;34.70;;;5.80;99.90;;;;;;5102174;28;20200;-83
2023/01/13 09:44:18;;;;;;;69.20;32.10;;;5.80;99.90;;;;;;5093355;28;20595;-86
2023/01/13 09:46:52;;;;;;;75.15;31.13;;;5.90;99.90;;;;;;5102143;28;20224;-84
2023/01/13 09:49:21;;;;;;;77.00;30.73;;;5.90;99.90;;;;;;5104590;28;20187;-83
2023/01/13 09:52:09;;;;;;;68.10;31.23;;;6.00;99.90;;;;;;5103501;28;20275;-83
2023/01/13 09:54:51;;;;;;;74.32;33.40;;;6.00;99.90;;;;;;5110976;28;20184;-82
2023/01/13 09:57:19;;;;;;;74.65;32.75;;;6.00;99.90;;;;;;5093274;28;20580;-83
2023/01/13 09:59:44;;;;;;;74.57;31.35;;;6.00;99.90;;;;;;5096210;28;20187;-82
2023/01/13 10:02:29;;;;;;;67.20;29.03;;;6.10;99.90;;;;;;5099448;28;20217;-86
2023/01/13 10:05:14;;;;;;;64.15;34.33;;;6.10;99.90;;;;;;5096929;28;20186;-82
2023/01/13 10:07:49;;;;;;;66.80;31.92;;;6.10;99.90;;;;;;5100262;28;20294;-84
2023/01/13 10:10:44;;;;;;;51.63;27.92;;;6.20;99.90;;;;;;5096290;28;20271;-83
2023/01/13 10:13:26;;;;;;;50.78;23.17;;;6.20;99.90;;;;;;5099227;28;20223;-84
2023/01/13 10:16:01;;;;;;;50.42;26.45;;;6.30;99.90;;;;;;5105179;28;20188;-82
2023/01/13 10:18:57;;;;;;;55.25;28.05;;;6.20;99.90;;;;;;5106221;28;20290;-84
2023/01/13 10:21:32;;;;;;;53.05;28.27;;;6.20;99.90;;;;;;5095401;28;20682;-82
2023/01/13 10:24:17;;;;;;;60.05;31.30;;;6.20;99.90;;;;;;5106643;28;20230;-84
2023/01/13 10:26:57;;;;;;;56.00;30.65;;;6.30;99.90;;;;;;5038756;28;20275;-83
2023/01/13 10:29:25;;;;;;;72.85;34.03;;;6.40;99.90;;;;;;5101517;28;20191;-83
2023/01/13 10:31:53;;;;;;;52.35;29.17;;;6.50;99.90;;;;;;5089526;28;20259;-84
2023/01/13 10:34:20;;;;;;;45.65;26.35;;;6.50;99.90;;;;;;5090889;28;20191;-84
2023/01/13 10:37:28;;;;;;;43.65;26.52;;;6.40;99.90;;;;;;5087903;28;20179;-82
2023/01/13 10:39:48;;;;;;;53.78;30.30;;;6.50;99.90;;;;;;5089890;28;20642;-82
2023/01/13 10:42:20;;;;;;;47.47;24.10;;;6.60;99.90;;;;;;5094354;28;20219;-84
2023/01/13 10:44:56;;;;;;;45.63;25.67;;;6.60;99.90;;;;;;5100514;28;20517;-84
2023/01/13 10:47:29;;;;;;;59.35;35.03;;;6.60;99.90;;;;;;5094956;28;20232;-83
2023/01/13 10:50:22;;;;;;;47.67;27.05;;;6.60;99.90;;;;;;5100140;28;20576;-83
2023/01/13 10:53:24;;;;;;;46.83;25.80;;;6.60;99.90;;;;;;5111455;28;20717;-83
2023/01/13 10:56:01;;;;;;;39.50;24.33;;;6.80;99.90;;;;;;5101874;28;20227;-82
2023/01/13 10:58:28;;;;;;;40.08;22.52;;;6.80;99.90;;;;;;5109805;28;20210;-84
2023/01/13 11:01:05;;;;;;;40.08;22.73;;;6.80;99.90;;;;;;5092971;28;20180;-83
2023/01/13 11:03:43;;;;;;;37.70;23.40;;;6.80;99.90;;;;;;5092521;28;20234;-84
2023/01/13 11:06:17;;;;;;;38.80;24.55;;;6.90;99.90;;;;;;5093580;28;20550;-82
2023/01/13 11:08:45;;;;;;;40.85;22.88;;;6.90;99.90;;;;;;5096088;28;20296;-85
2023/01/13 11:11:38;;;;;;;35.80;24.20;;;6.90;99.90;;;;;;5092937;28;20517;-84
2023/01/13 11:17:46;;;;;;;40.72;25.02;;;6.90;99.90;;;;;;5108415;28;20236;-85
2023/01/13 11:20:31;;;;;;;38.85;22.88;;;7.00;99.90;;;;;;5065931;28;20201;-82
2023/01/13 11:23:01;;;;;;;39.47;22.67;;;7.00;99.90;;;;;;5064897;28;20315;-82
2023/01/13 11:25:43;;;;;;;39.83;24.20;;;7.00;99.90;;;;;;5094390;28;20203;-83
2023/01/13 11:28:27;;;;;;;42.88;26.52;;;7.10;99.90;;;;;;5115748;28;20198;-84
2023/01/13 11:31:21;;;;;;;41.05;23.88;;;7.30;99.90;;;;;;5112061;28;20183;-83
2023/01/13 11:34:00;;;;;;;35.40;21.15;;;7.20;99.90;;;;;;5113090;28;20286;-83
2023/01/13 11:36:44;;;;;;;32.30;19.10;;;7.20;99.90;;;;;;5116472;28;20203;-83
2023/01/13 11:39:25;;;;;;;22.13;12.70;;;7.30;99.90;;;;;;5101077;27;20227;-83
2023/01/13 11:42:19;;;;;;;26.45;14.98;;;7.20;99.90;;;;;;5104495;28;20184;-85
2023/01/13 11:45:16;;;;;;;36.35;20.88;;;7.20;99.90;;;;;;5095845;27;20191;-85
2023/01/13 11:47:45;;;;;;;45.35;25.27;;;7.30;99.90;;;;;;5097259;28;20579;-83
2023/01/13 11:50:20;;;;;;;39.40;23.75;;;7.40;99.90;;;;;;5098323;28;20258;-82
2023/01/13 11:52:54;;;;;;;41.00;27.15;;;7.40;99.90;;;;;;5101465;28;20733;-85
2023/01/13 11:55:23;;;;;;;30.77;18.75;;;7.40;99.90;;;;;;5095948;28;20251;-84
2023/01/13 11:58:04;;;;;;;32.15;18.60;;;7.40;99.90;;;;;;5092943;27;20313;-84
2023/01/13 12:00:49;;;;;;;33.88;20.98;;;7.40;99.90;;;;;;5086676;28;20731;-84
2023/01/13 12:03:28;;;;;;;46.58;28.73;;;7.20;99.90;;;;;;5094937;28;20260;-84
2023/01/13 12:05:58;;;;;;;42.63;25.38;;;7.30;99.90;;;;;;5096113;28;20377;-83
2023/01/13 12:08:36;;;;;;;41.10;24.83;;;7.40;99.90;;;;;;5099059;28;20210;-83
2023/01/13 12:11:17;;;;;;;31.23;17.40;;;7.40;99.90;;;;;;5096936;28;20548;-82
2023/01/13 12:14:12;;;;;;;30.60;18.15;;;7.40;99.90;;;;;;5098741;28;20204;-83
2023/01/13 12:16:48;;;;;;;41.42;24.85;;;7.40;99.90;;;;;;5097218;28;20218;-84
2023/01/13 12:19:29;;;;;;;43.00;26.73;;;7.50;99.90;;;;;;5100917;27;20204;-82
2023/01/13 12:22:07;;;;;;;38.40;23.42;;;7.60;99.90;;;;;;5103902;28;20584;-83
2023/01/13 12:24:53;;;;;;;46.70;29.23;;;7.60;99.90;;;;;;5107069;28;20223;-85
2023/01/13 12:27:43;;;;;;;38.33;25.38;;;7.70;99.90;;;;;;5098316;28;20566;-85
2023/01/13 12:30:24;;;;;;;38.35;24.27;;;7.70;99.90;;;;;;5091472;28;20184;-83
2023/01/13 12:32:55;;;;;;;40.50;24.10;;;7.60;99.90;;;;;;5106310;28;20768;-84
2023/01/13 12:35:36;;;;;;;42.03;25.13;;;7.70;99.90;;;;;;5106601;28;20542;-84
2023/01/13 12:38:20;;;;;;;37.60;23.77;;;7.80;99.90;;;;;;5095491;28;20482;-85
2023/01/13 12:41:10;;;;;;;33.28;21.52;;;7.70;99.90;;;;;;5097860;28;20184;-83
2023/01/13 12:46:23;;;;;;;40.90;24.23;;;7.80;99.90;;;;;;5107658;28;20196;-83
2023/01/13 12:48:58;;;;;;;46.67;22.03;;;7.80;99.90;;;;;;5099096;27;20204;-85
2023/01/13 12:51:56;;;;;;;55.25;24.48;;;7.90;99.90;;;;;;5100036;27;20648;-85
2023/01/13 12:54:27;;;;;;;42.40;24.10;;;7.90;99.90;;;;;;5063565;28;20199;-81
2023/01/13 12:56:53;;;;;;;36.80;22.80;;;7.80;99.90;;;;;;5099076;28;20203;-85
2023/01/13 12:59:19;;;;;;;36.05;22.00;;;7.90;99.90;;;;;;5099716;27;20224;-83
2023/01/13 13:01:47;;;;;;;37.20;23.90;;;8.00;99.90;;;;;;5106122;28;20652;-85
2023/01/13 13:04:18;;;;;;;33.97;20.55;;;8.00;99.90;;;;;;5100396;28;20306;-82
2023/01/13 13:07:14;;;;;;;40.83;23.73;;;8.00;99.90;;;;;;5090417;28;20633;-83
2023/01/13 13:09:45;;;;;;;34.85;21.35;;;7.90;99.90;;;;;;5096173;28;20181;-86
2023/01/13 13:15:20;;;;;;;33.63;22.42;;;7.90;99.90;;;;;;5099620;28;20413;-84
2023/01/13 13:17:59;;;;;;;34.33;21.38;;;7.90;99.90;;;;;;5100385;28;20207;-86
2023/01/13 13:20:52;;;;;;;31.60;20.15;;;8.00;99.90;;;;;;5101048;28;20371;-84
2023/01/13 13:26:41;;;;;;;35.72;20.00;;;8.10;99.90;;;;;;5096542;28;20561;-84
2023/01/13 13:29:47;;;;;;;29.30;17.73;;;8.10;99.90;;;;;;5100459;27;20220;-84
2023/01/13 13:32:30;;;;;;;32.90;21.58;;;8.10;99.90;;;;;;5102734;27;20669;-85
2023/01/13 13:35:15;;;;;;;29.30;19.67;;;8.10;99.90;;;;;;5105805;28;20587;-84
2023/01/13 13:49:11;;;;;;;32.75;20.27;;;8.40;99.90;;;;;;5092022;28;20234;-86
2023/01/13 13:51:43;;;;;;;28.20;18.07;;;8.50;99.90;;;;;;5103217;27;20186;-84
2023/01/13 13:54:12;;;;;;;30.95;19.67;;;8.50;99.90;;;;;;5092869;28;20470;-81
2023/01/13 13:56:43;;;;;;;35.28;20.67;;;8.50;99.90;;;;;;5098631;27;20284;-82
2023/01/13 13:59:15;;;;;;;27.50;18.95;;;8.60;99.90;;;;;;5095745;28;20269;-84
2023/01/13 14:01:44;;;;;;;30.98;19.73;;;8.60;99.90;;;;;;5098191;28;20216;-81
2023/01/13 14:04:20;;;;;;;34.97;22.08;;;8.70;99.90;;;;;;5095429;28;20235;-84
2023/01/13 14:06:58;;;;;;;32.15;20.88;;;8.70;99.90;;;;;;5089150;28;20172;-84
2023/01/13 14:09:25;;;;;;;32.38;20.85;;;8.70;99.90;;;;;;5097752;28;20207;-83
2023/01/13 14:11:57;;;;;;;33.15;22.30;;;8.70;99.90;;;;;;5105161;28;20716;-82